Time;durP1;ratioP1;P1;durP2;ratioP2;P2;SDS_P1;SDS_P2;PMS_P1;PMS_P2;Temp;Humidity;BMP_temperature;BMP_pressure;BME280_temperature;BME280_humidity;BME280_pressure;Samples;Min_cycle;Max_cycle;Signal;HPM_P1;HPM_P2
2023/12/28 00:01:20;;;;;;;7.43;2.97;;;5.20;99.90;;;;;;5012491;28;20033;-62
2023/12/28 00:03:46;;;;;;;3.17;2.17;;;5.10;99.90;;;;;;5023122;28;20034;-62
2023/12/28 00:06:11;;;;;;;4.00;1.95;;;5.10;99.90;;;;;;5013667;28;20040;-62
2023/12/28 00:08:37;;;;;;;2.47;1.95;;;5.10;99.90;;;;;;5006806;28;20120;-62
2023/12/28 00:11:03;;;;;;;5.97;2.53;;;5.10;99.90;;;;;;5013157;28;20421;-63
2023/12/28 00:13:29;;;;;;;8.95;2.88;;;5.20;99.90;;;;;;5012938;28;20053;-62
2023/12/28 00:15:56;;;;;;;4.93;2.17;;;5.30;99.90;;;;;;5028407;28;20544;-62
2023/12/28 00:18:22;;;;;;;12.95;1.90;;;5.40;99.90;;;;;;5032544;28;20033;-63
2023/12/28 00:20:48;;;;;;;7.30;2.53;;;5.40;99.90;;;;;;5013234;28;20108;-63
2023/12/28 00:23:14;;;;;;;3.75;2.03;;;5.50;99.90;;;;;;4995599;28;20045;-63
2023/12/28 00:25:39;;;;;;;3.55;2.25;;;5.50;99.90;;;;;;5012820;28;20076;-63
2023/12/28 00:28:05;;;;;;;4.82;1.80;;;5.60;99.90;;;;;;5013338;28;20117;-63
2023/12/28 00:30:32;;;;;;;5.47;2.72;;;5.60;99.90;;;;;;5012266;28;20022;-63
2023/12/28 00:32:58;;;;;;;2.08;1.60;;;5.60;99.90;;;;;;5012053;28;20022;-63
2023/12/28 00:35:24;;;;;;;3.40;1.98;;;5.50;99.90;;;;;;5012645;28;20026;-63
2023/12/28 00:37:49;;;;;;;2.17;1.98;;;5.40;99.90;;;;;;5013314;28;20156;-63
2023/12/28 00:40:16;;;;;;;4.10;2.08;;;5.40;99.90;;;;;;5012517;28;20084;-63
2023/12/28 00:42:41;;;;;;;8.18;4.22;;;5.40;99.90;;;;;;5017521;28;20044;-64
2023/12/28 00:45:09;;;;;;;5.28;3.25;;;5.40;99.90;;;;;;5017841;28;20033;-63
2023/12/28 00:47:35;;;;;;;2.33;1.90;;;5.50;99.90;;;;;;4995520;28;20026;-61
2023/12/28 00:50:01;;;;;;;1.15;1.02;;;5.50;99.90;;;;;;5001933;28;20520;-63
2023/12/28 00:52:27;;;;;;;3.55;2.35;;;5.50;99.90;;;;;;5014437;28;20056;-63
2023/12/28 00:54:52;;;;;;;5.57;1.98;;;5.60;99.90;;;;;;5019645;28;20026;-62
2023/12/28 00:57:18;;;;;;;3.15;2.40;;;5.70;99.90;;;;;;5022281;28;20037;-62
2023/12/28 00:59:44;;;;;;;4.50;2.28;;;5.70;99.90;;;;;;4997502;28;20056;-62
2023/12/28 01:02:10;;;;;;;2.40;1.67;;;5.90;99.90;;;;;;5028669;28;20112;-62
2023/12/28 01:04:36;;;;;;;3.58;1.70;;;6.10;99.90;;;;;;5012138;28;20109;-63
2023/12/28 01:07:04;;;;;;;3.40;2.17;;;6.30;99.90;;;;;;5019917;28;20029;-62
2023/12/28 01:09:32;;;;;;;3.20;1.80;;;6.30;99.90;;;;;;5003124;28;20068;-61
2023/12/28 01:11:58;;;;;;;5.13;1.85;;;6.30;99.90;;;;;;4994732;28;20080;-62
2023/12/28 01:14:24;;;;;;;2.03;1.65;;;6.30;99.90;;;;;;5011892;28;20038;-62
2023/12/28 01:16:50;;;;;;;1.92;1.63;;;6.30;99.90;;;;;;5018007;28;20095;-62
2023/12/28 01:19:16;;;;;;;4.20;2.00;;;6.20;99.90;;;;;;5023847;28;20046;-62
2023/12/28 01:21:42;;;;;;;3.22;2.30;;;6.30;99.90;;;;;;5012034;28;20029;-61
2023/12/28 01:24:07;;;;;;;3.70;2.13;;;6.30;99.90;;;;;;5011716;28;20566;-62
2023/12/28 01:26:34;;;;;;;3.92;2.03;;;6.30;99.90;;;;;;5012129;28;20127;-62
2023/12/28 01:29:03;;;;;;;3.85;1.50;;;6.30;99.90;;;;;;5013497;28;20026;-62
2023/12/28 01:31:29;;;;;;;1.85;1.50;;;6.20;99.90;;;;;;5030969;28;20025;-62
2023/12/28 01:33:55;;;;;;;3.20;1.60;;;6.10;99.90;;;;;;5026760;28;20030;-62
2023/12/28 01:36:22;;;;;;;4.53;2.28;;;6.00;99.90;;;;;;5002671;28;20057;-62
2023/12/28 01:38:48;;;;;;;3.15;2.40;;;5.90;99.90;;;;;;4994123;28;20096;-62
2023/12/28 01:41:15;;;;;;;4.18;2.30;;;5.80;99.90;;;;;;4994001;28;20065;-64
2023/12/28 01:43:42;;;;;;;4.10;2.15;;;5.80;99.90;;;;;;5011126;28;20168;-62
2023/12/28 01:46:16;;;;;;;5.50;2.03;;;5.80;99.90;;;;;;5002419;28;20121;-62
2023/12/28 01:48:44;;;;;;;4.97;1.80;;;5.70;99.90;;;;;;5026577;28;20041;-62
2023/12/28 01:51:14;;;;;;;10.27;2.22;;;5.70;99.90;;;;;;5010628;28;20045;-62
2023/12/28 01:53:40;;;;;;;3.05;1.95;;;5.80;99.90;;;;;;5010987;28;20026;-62
2023/12/28 01:56:07;;;;;;;3.13;2.03;;;5.80;99.90;;;;;;5002043;28;20029;-63
2023/12/28 01:58:35;;;;;;;3.05;1.83;;;5.90;99.90;;;;;;4995285;28;20018;-62
2023/12/28 02:01:01;;;;;;;1.88;1.42;;;6.00;99.90;;;;;;5011559;28;20030;-62
2023/12/28 02:03:28;;;;;;;2.50;1.25;;;6.30;99.90;;;;;;5011181;28;20030;-62
2023/12/28 02:05:54;;;;;;;5.38;1.13;;;6.70;99.90;;;;;;4985888;28;20018;-62
2023/12/28 02:08:20;;;;;;;5.45;1.58;;;7.30;99.90;;;;;;4994676;28;20108;-62
2023/12/28 02:10:46;;;;;;;1.65;1.00;;;8.30;99.90;;;;;;4987402;28;20454;-62
2023/12/28 02:13:12;;;;;;;2.17;1.35;;;9.00;99.90;;;;;;5011291;28;20572;-62
2023/12/28 02:15:37;;;;;;;13.32;1.40;;;9.30;99.90;;;;;;5014935;28;20060;-62
2023/12/28 02:18:17;;;;;;;0.85;0.70;;;9.40;99.90;;;;;;5023880;28;20034;-62
2023/12/28 02:20:44;;;;;;;1.42;1.08;;;9.60;99.90;;;;;;5003232;28;20492;-62
2023/12/28 02:23:10;;;;;;;2.28;1.17;;;9.80;99.90;;;;;;5011401;28;20029;-63
2023/12/28 02:25:36;;;;;;;3.38;1.77;;;10.00;99.80;;;;;;4992867;28;20420;-62
2023/12/28 02:28:02;;;;;;;4.22;1.55;;;10.00;99.70;;;;;;5023933;28;20080;-63
2023/12/28 02:30:29;;;;;;;1.33;0.90;;;10.10;99.60;;;;;;5015051;28;20121;-64
2023/12/28 02:33:24;;;;;;;3.72;1.60;;;10.10;99.60;;;;;;5013452;28;20500;-62
2023/12/28 02:36:05;;;;;;;4.35;1.67;;;10.10;99.50;;;;;;5011077;28;20038;-64
2023/12/28 02:38:35;;;;;;;3.33;1.33;;;10.20;99.40;;;;;;4993356;28;20022;-63
2023/12/28 02:41:02;;;;;;;1.38;1.17;;;10.20;99.40;;;;;;5018530;28;20154;-63
2023/12/28 02:43:28;;;;;;;1.55;0.90;;;10.30;99.10;;;;;;5011344;28;20452;-63
2023/12/28 02:45:54;;;;;;;2.97;1.25;;;10.30;99.10;;;;;;4993870;28;20133;-64
2023/12/28 02:48:20;;;;;;;1.13;0.73;;;10.30;99.10;;;;;;5011128;28;20090;-64
2023/12/28 02:50:46;;;;;;;2.25;0.40;;;10.40;98.90;;;;;;5010538;28;20486;-63
2023/12/28 02:53:12;;;;;;;1.60;0.80;;;10.40;99.00;;;;;;5001683;28;20069;-63
2023/12/28 02:55:38;;;;;;;1.83;1.15;;;10.40;98.90;;;;;;5022883;28;20063;-63
2023/12/28 02:58:07;;;;;;;2.83;1.02;;;10.50;98.80;;;;;;5034839;28;20389;-63
2023/12/28 03:00:33;;;;;;;1.30;0.82;;;10.50;98.80;;;;;;5014077;28;20034;-63
2023/12/28 03:02:59;;;;;;;3.45;1.45;;;10.50;98.70;;;;;;5014675;28;20101;-65
2023/12/28 03:05:24;;;;;;;0.80;0.75;;;10.50;99.00;;;;;;5014111;28;20072;-64
2023/12/28 03:07:50;;;;;;;2.60;1.02;;;10.50;98.80;;;;;;5014389;28;20029;-62
2023/12/28 03:10:16;;;;;;;1.33;0.80;;;10.50;98.90;;;;;;5014947;28;20042;-63
2023/12/28 03:12:41;;;;;;;1.55;0.70;;;10.40;99.20;;;;;;5033767;28;20017;-62
2023/12/28 03:15:07;;;;;;;1.40;0.80;;;10.50;99.10;;;;;;5027108;28;20033;-62
2023/12/28 03:17:33;;;;;;;2.40;0.70;;;10.50;98.60;;;;;;5014435;28;20030;-63
2023/12/28 03:19:59;;;;;;;1.13;0.90;;;10.50;98.80;;;;;;5013928;28;20115;-63
2023/12/28 03:22:25;;;;;;;4.07;1.58;;;10.50;98.50;;;;;;5014567;28;20037;-63
2023/12/28 03:24:52;;;;;;;1.30;0.90;;;10.60;98.40;;;;;;5021304;28;20034;-63
2023/12/28 03:27:17;;;;;;;3.97;1.55;;;10.60;98.60;;;;;;5015160;28;20036;-64
2023/12/28 03:29:43;;;;;;;1.27;0.85;;;10.60;99.10;;;;;;5022022;28;20046;-64
2023/12/28 03:32:09;;;;;;;1.52;0.68;;;10.50;99.40;;;;;;5013711;28;20105;-63
2023/12/28 03:34:35;;;;;;;4.00;1.25;;;10.50;99.30;;;;;;5005611;28;20022;-63
2023/12/28 03:37:01;;;;;;;3.15;1.10;;;10.50;99.40;;;;;;5013927;28;20025;-62
2023/12/28 03:39:27;;;;;;;1.42;0.82;;;10.50;99.90;;;;;;5013047;28;20045;-63
2023/12/28 03:41:53;;;;;;;1.85;1.35;;;10.60;99.90;;;;;;4996114;28;20525;-62
2023/12/28 03:44:20;;;;;;;0.55;0.52;;;10.60;99.90;;;;;;5013312;28;20038;-62
2023/12/28 03:46:51;;;;;;;1.33;0.60;;;10.60;99.90;;;;;;5018447;28;20080;-63
2023/12/28 03:49:20;;;;;;;1.00;0.75;;;10.60;99.90;;;;;;5001993;28;20043;-63
2023/12/28 03:51:49;;;;;;;0.32;0.30;;;10.60;99.90;;;;;;5026603;28;20420;-63
2023/12/28 03:54:19;;;;;;;1.95;0.98;;;10.60;99.90;;;;;;5025590;28;20494;-63
2023/12/28 03:56:46;;;;;;;1.85;0.88;;;10.60;99.90;;;;;;5026654;28;20107;-63
2023/12/28 03:59:15;;;;;;;1.23;0.80;;;10.50;99.90;;;;;;5001775;28;20039;-63
2023/12/28 04:01:40;;;;;;;1.65;0.93;;;10.60;99.90;;;;;;5000567;28;20026;-63
2023/12/28 04:04:06;;;;;;;0.65;0.50;;;10.50;99.90;;;;;;5026903;28;20046;-62
2023/12/28 04:06:32;;;;;;;3.03;1.10;;;10.50;99.90;;;;;;5016505;28;20029;-63
2023/12/28 04:08:57;;;;;;;2.00;1.00;;;10.50;99.90;;;;;;5027665;28;20042;-63
2023/12/28 04:11:23;;;;;;;10.32;1.15;;;10.40;99.90;;;;;;5014933;28;20068;-63
2023/12/28 04:13:49;;;;;;;7.13;1.08;;;10.40;99.90;;;;;;5029099;28;20482;-64
2023/12/28 04:16:16;;;;;;;1.75;0.77;;;10.30;99.90;;;;;;5013564;28;20430;-62
2023/12/28 04:18:42;;;;;;;1.40;0.43;;;10.30;99.90;;;;;;5014460;28;20449;-62
2023/12/28 04:21:12;;;;;;;1.70;0.70;;;10.20;99.90;;;;;;5003494;28;20029;-62
2023/12/28 04:23:39;;;;;;;3.13;1.00;;;10.20;99.90;;;;;;4997550;28;20029;-63
2023/12/28 04:26:05;;;;;;;0.57;0.45;;;10.20;99.90;;;;;;5013511;28;20414;-62
2023/12/28 04:28:31;;;;;;;2.67;1.25;;;10.20;99.90;;;;;;5003327;28;20033;-63
2023/12/28 04:30:57;;;;;;;0.65;0.65;;;10.20;99.90;;;;;;5027869;28;20105;-62
2023/12/28 04:33:23;;;;;;;0.95;0.93;;;10.20;99.90;;;;;;5032323;28;20036;-62
2023/12/28 04:35:48;;;;;;;1.02;0.70;;;10.20;99.90;;;;;;5018384;28;20029;-62
2023/12/28 04:38:14;;;;;;;1.55;0.80;;;10.10;99.90;;;;;;5015007;28;20108;-63
2023/12/28 04:40:41;;;;;;;1.38;0.55;;;10.10;99.90;;;;;;5017047;28;20025;-62
2023/12/28 04:43:07;;;;;;;1.25;0.60;;;10.10;99.90;;;;;;5025183;28;20034;-62
2023/12/28 04:45:32;;;;;;;0.80;0.63;;;10.10;99.90;;;;;;5012540;28;20033;-63
2023/12/28 04:47:59;;;;;;;2.30;1.25;;;10.10;99.90;;;;;;5012985;28;20069;-62
2023/12/28 04:50:24;;;;;;;3.03;1.00;;;10.10;99.90;;;;;;5014496;28;20026;-62
2023/12/28 04:52:50;;;;;;;1.58;0.80;;;10.00;99.90;;;;;;5027203;28;20034;-62
2023/12/28 04:55:16;;;;;;;0.85;0.52;;;10.00;99.90;;;;;;5021879;28;20038;-62
2023/12/28 04:57:42;;;;;;;1.75;0.80;;;9.90;99.90;;;;;;5025429;28;20021;-64
2023/12/28 05:00:08;;;;;;;2.10;1.08;;;9.90;99.90;;;;;;5001782;28;20699;-63
2023/12/28 05:02:34;;;;;;;2.45;0.98;;;9.90;99.90;;;;;;5014539;28;20033;-62
2023/12/28 05:05:00;;;;;;;1.23;0.93;;;9.90;99.90;;;;;;4993009;28;20052;-62
2023/12/28 05:07:26;;;;;;;0.90;0.68;;;9.90;99.90;;;;;;5012611;28;20060;-62
2023/12/28 05:09:52;;;;;;;0.60;0.60;;;9.90;99.90;;;;;;5012011;28;20065;-64
2023/12/28 05:12:18;;;;;;;1.10;0.57;;;10.00;99.90;;;;;;5029633;28;20477;-62
2023/12/28 05:14:43;;;;;;;0.93;0.63;;;9.90;99.90;;;;;;5025160;28;20627;-62
2023/12/28 05:17:09;;;;;;;0.75;0.65;;;9.80;99.90;;;;;;5014740;28;20025;-62
2023/12/28 05:19:35;;;;;;;0.40;0.32;;;9.80;99.90;;;;;;5020735;28;20120;-62
2023/12/28 05:22:03;;;;;;;0.75;0.50;;;9.90;99.90;;;;;;4994664;28;20538;-62
2023/12/28 05:24:29;;;;;;;0.77;0.50;;;9.80;99.90;;;;;;5011648;28;20052;-62
2023/12/28 05:26:55;;;;;;;0.77;0.55;;;9.80;99.90;;;;;;5018663;28;20464;-62
2023/12/28 05:29:21;;;;;;;0.35;0.30;;;9.80;99.90;;;;;;4998101;28;20035;-62
2023/12/28 05:31:47;;;;;;;2.72;0.65;;;9.70;99.90;;;;;;5017445;28;20091;-62
2023/12/28 05:34:13;;;;;;;0.95;0.70;;;9.80;99.90;;;;;;5023180;28;20029;-62
2023/12/28 05:36:41;;;;;;;1.95;1.17;;;9.70;99.90;;;;;;5012427;28;20022;-63
2023/12/28 05:39:09;;;;;;;0.73;0.63;;;9.70;99.90;;;;;;5011755;28;20033;-62
2023/12/28 05:41:35;;;;;;;1.33;0.80;;;9.70;99.90;;;;;;5028283;28;20034;-62
2023/12/28 05:44:01;;;;;;;0.60;0.38;;;9.60;99.90;;;;;;5021338;28;20025;-62
2023/12/28 05:46:26;;;;;;;1.45;0.75;;;9.60;99.90;;;;;;5012216;28;20033;-62
2023/12/28 05:48:52;;;;;;;1.38;0.77;;;9.60;99.90;;;;;;4993995;28;20432;-62
2023/12/28 05:51:21;;;;;;;0.55;0.55;;;9.60;99.90;;;;;;5012842;28;20030;-62
2023/12/28 05:53:46;;;;;;;1.20;0.65;;;9.50;99.90;;;;;;5010610;28;20065;-63
2023/12/28 05:56:12;;;;;;;1.52;0.50;;;9.60;99.90;;;;;;5011924;28;20053;-63
2023/12/28 05:58:38;;;;;;;1.30;0.95;;;9.50;99.90;;;;;;5011484;28;20026;-63
2023/12/28 06:01:05;;;;;;;1.20;0.90;;;9.50;99.90;;;;;;5009377;28;20034;-63
2023/12/28 06:03:31;;;;;;;2.63;1.08;;;9.50;99.90;;;;;;5020355;28;20069;-64
2023/12/28 06:05:57;;;;;;;0.52;0.38;;;9.40;99.90;;;;;;5011995;28;20557;-63
2023/12/28 06:08:23;;;;;;;2.63;0.60;;;9.40;99.90;;;;;;5020091;28;20116;-63
2023/12/28 06:10:49;;;;;;;1.05;0.60;;;9.50;99.90;;;;;;4992841;28;20121;-63
2023/12/28 06:13:14;;;;;;;2.13;0.52;;;9.40;99.90;;;;;;5031107;28;20124;-63
2023/12/28 06:15:41;;;;;;;2.05;0.75;;;9.40;99.90;;;;;;5019357;28;20105;-63
2023/12/28 06:18:06;;;;;;;1.55;0.80;;;9.40;99.90;;;;;;4994092;28;20026;-63
2023/12/28 06:20:32;;;;;;;0.98;0.73;;;9.50;99.90;;;;;;4993211;28;20040;-63
2023/12/28 06:22:58;;;;;;;9.00;1.20;;;9.50;99.90;;;;;;5011480;28;20034;-63
2023/12/28 06:25:24;;;;;;;1.02;0.68;;;9.50;99.90;;;;;;5011189;28;20089;-63
2023/12/28 06:27:49;;;;;;;2.13;1.10;;;9.50;99.90;;;;;;4994285;28;20045;-62
2023/12/28 06:30:15;;;;;;;2.33;1.10;;;9.50;99.90;;;;;;5021127;28;20080;-63
2023/12/28 06:32:41;;;;;;;1.55;0.60;;;9.60;99.90;;;;;;5022799;28;20041;-63
2023/12/28 06:35:07;;;;;;;0.63;0.50;;;9.60;99.90;;;;;;5022703;28;20033;-63
2023/12/28 06:37:33;;;;;;;4.22;0.93;;;9.60;99.90;;;;;;5035338;28;20064;-63
2023/12/28 06:39:59;;;;;;;1.52;0.70;;;9.70;99.90;;;;;;4997351;28;20069;-63
2023/12/28 06:42:24;;;;;;;1.58;0.85;;;9.70;99.90;;;;;;5023307;28;20030;-63
2023/12/28 06:44:50;;;;;;;3.08;1.30;;;9.60;99.90;;;;;;5014795;28;20060;-63
2023/12/28 06:47:16;;;;;;;1.55;0.60;;;9.70;99.90;;;;;;5023284;28;20592;-63
2023/12/28 06:49:41;;;;;;;10.50;1.05;;;9.70;99.90;;;;;;5014610;28;20077;-63
2023/12/28 06:52:07;;;;;;;4.95;1.27;;;9.70;99.90;;;;;;4997496;28;20036;-63
2023/12/28 06:54:33;;;;;;;1.58;0.73;;;9.70;99.90;;;;;;5014516;28;20034;-63
2023/12/28 06:56:59;;;;;;;1.45;0.73;;;9.70;99.90;;;;;;5015361;28;20033;-63
2023/12/28 06:59:25;;;;;;;2.35;1.20;;;9.70;99.90;;;;;;5014627;28;20029;-63
2023/12/28 07:01:51;;;;;;;0.57;0.30;;;9.70;99.90;;;;;;5015882;28;20033;-64
2023/12/28 07:04:17;;;;;;;3.92;1.30;;;9.70;99.90;;;;;;5015465;28;20581;-63
2023/12/28 07:06:43;;;;;;;0.98;0.68;;;9.80;99.90;;;;;;5034983;28;20025;-63
2023/12/28 07:09:08;;;;;;;2.30;0.75;;;9.80;99.90;;;;;;5004676;28;20092;-63
2023/12/28 07:11:34;;;;;;;1.05;0.57;;;9.70;99.90;;;;;;5014331;28;20050;-63
2023/12/28 07:14:00;;;;;;;10.43;1.13;;;9.70;99.90;;;;;;5023568;28;20101;-63
2023/12/28 07:16:26;;;;;;;2.17;0.70;;;9.70;99.90;;;;;;5014820;28;20037;-63
2023/12/28 07:18:52;;;;;;;1.58;0.90;;;9.60;99.90;;;;;;5013460;28;20042;-63
2023/12/28 07:21:18;;;;;;;3.78;1.02;;;9.70;99.90;;;;;;5013891;28;20498;-64
2023/12/28 07:23:48;;;;;;;0.65;0.45;;;9.70;99.90;;;;;;5031075;28;20046;-62
2023/12/28 07:26:15;;;;;;;0.95;0.77;;;9.70;99.90;;;;;;5023516;28;20026;-63
2023/12/28 07:28:43;;;;;;;1.38;0.90;;;9.70;99.90;;;;;;5031386;28;20060;-62
2023/12/28 07:31:09;;;;;;;2.45;0.70;;;9.70;99.90;;;;;;5012884;28;20033;-62
2023/12/28 07:33:35;;;;;;;0.70;0.50;;;9.70;99.90;;;;;;5014334;28;20049;-62
2023/12/28 07:36:02;;;;;;;2.22;1.08;;;9.70;99.90;;;;;;5014672;28;20065;-63
2023/12/28 07:38:28;;;;;;;2.42;1.02;;;9.60;99.90;;;;;;5014260;28;20519;-62
2023/12/28 07:40:54;;;;;;;0.65;0.55;;;9.60;99.90;;;;;;5014308;28;20041;-62
2023/12/28 07:43:19;;;;;;;1.48;0.82;;;9.70;99.90;;;;;;5014162;28;20028;-62
2023/12/28 07:45:45;;;;;;;2.53;1.00;;;9.70;99.90;;;;;;5014039;28;20038;-62
2023/12/28 07:48:11;;;;;;;0.50;0.50;;;9.70;99.90;;;;;;5022465;28;20044;-63
2023/12/28 07:50:37;;;;;;;0.95;0.63;;;9.70;99.90;;;;;;4997143;28;20485;-65
2023/12/28 07:53:02;;;;;;;2.55;1.48;;;9.70;99.90;;;;;;4996807;28;20062;-61
2023/12/28 07:55:28;;;;;;;1.88;0.75;;;9.70;99.90;;;;;;5013854;28;20041;-62
2023/12/28 07:57:54;;;;;;;1.00;0.63;;;9.70;99.90;;;;;;4996719;28;20101;-64
2023/12/28 08:00:20;;;;;;;1.65;0.90;;;9.80;99.90;;;;;;5013762;28;20504;-63
2023/12/28 08:02:46;;;;;;;3.92;1.15;;;9.80;99.90;;;;;;5010294;28;20069;-62
2023/12/28 08:05:12;;;;;;;0.45;0.45;;;9.80;99.90;;;;;;4994454;28;20030;-63
2023/12/28 08:07:37;;;;;;;2.15;0.65;;;9.80;99.90;;;;;;5010740;28;20125;-62
2023/12/28 08:10:03;;;;;;;1.60;0.68;;;9.80;99.90;;;;;;5010020;28;20500;-62
2023/12/28 08:12:29;;;;;;;1.05;0.68;;;9.90;99.90;;;;;;5013377;28;20422;-62
2023/12/28 08:14:55;;;;;;;2.30;0.52;;;9.80;99.90;;;;;;5013309;28;20057;-62
2023/12/28 08:17:21;;;;;;;1.60;0.85;;;9.90;99.90;;;;;;5013680;28;20026;-62
2023/12/28 08:19:47;;;;;;;1.00;0.73;;;9.80;99.90;;;;;;4996050;28;20037;-62
2023/12/28 08:22:13;;;;;;;0.68;0.52;;;9.80;99.90;;;;;;5013297;28;20067;-63
2023/12/28 08:24:38;;;;;;;0.52;0.43;;;9.70;99.90;;;;;;5022289;28;20025;-63
2023/12/28 08:27:04;;;;;;;0.95;0.47;;;9.80;99.90;;;;;;5006832;28;20046;-63
2023/12/28 08:29:30;;;;;;;3.72;1.10;;;9.80;99.90;;;;;;5012047;28;20061;-63
2023/12/28 08:31:56;;;;;;;2.05;1.30;;;9.80;99.90;;;;;;5013276;28;20029;-63
2023/12/28 08:34:21;;;;;;;4.47;0.93;;;9.80;99.90;;;;;;5012809;28;20108;-60
2023/12/28 08:36:47;;;;;;;1.40;0.88;;;9.80;99.90;;;;;;5013582;28;20036;-63
2023/12/28 08:39:13;;;;;;;2.97;0.63;;;9.90;99.90;;;;;;5013136;28;20073;-63
2023/12/28 08:41:39;;;;;;;0.52;0.50;;;9.90;99.90;;;;;;5013243;28;20052;-63
2023/12/28 08:44:04;;;;;;;1.00;0.55;;;9.90;99.90;;;;;;5012954;28;20038;-63
2023/12/28 08:46:31;;;;;;;3.97;1.30;;;9.90;99.90;;;;;;5013505;28;20037;-63
2023/12/28 08:48:56;;;;;;;0.77;0.77;;;9.90;99.90;;;;;;5012650;28;20065;-63
2023/12/28 08:51:22;;;;;;;0.90;0.73;;;10.00;99.90;;;;;;4996806;28;20060;-63
2023/12/28 08:53:48;;;;;;;1.10;1.00;;;10.00;99.90;;;;;;5026643;28;20498;-63
2023/12/28 08:56:20;;;;;;;3.03;0.50;;;10.00;99.90;;;;;;5013153;28;20030;-63
2023/12/28 08:58:47;;;;;;;3.58;0.93;;;10.10;99.90;;;;;;5012522;28;20486;-64
2023/12/28 09:01:25;;;;;;;0.65;0.32;;;10.00;99.90;;;;;;5003308;28;20691;-63
2023/12/28 09:03:54;;;;;;;1.38;0.60;;;10.00;99.90;;;;;;5012436;28;20137;-64
2023/12/28 09:06:20;;;;;;;1.92;0.60;;;10.00;99.90;;;;;;5012562;28;20025;-63
2023/12/28 09:08:50;;;;;;;2.28;0.93;;;10.00;99.90;;;;;;5019641;28;20045;-63
2023/12/28 09:11:16;;;;;;;1.10;0.98;;;10.10;99.90;;;;;;4995130;28;20678;-62
2023/12/28 09:13:41;;;;;;;2.50;1.00;;;10.10;99.90;;;;;;4995060;28;20034;-63
2023/12/28 09:16:15;;;;;;;0.77;0.47;;;10.10;99.90;;;;;;5109521;27;20900;-62
2023/12/28 09:18:42;;;;;;;0.95;0.47;;;10.00;99.90;;;;;;5085839;28;20047;-63
2023/12/28 09:21:09;;;;;;;0.28;0.25;;;10.10;99.90;;;;;;5078730;28;20039;-64
2023/12/28 09:23:35;;;;;;;1.30;1.05;;;10.20;99.90;;;;;;5065578;28;20017;-63
2023/12/28 09:26:05;;;;;;;1.15;0.85;;;10.20;99.90;;;;;;5079221;28;20027;-63
2023/12/28 09:28:34;;;;;;;3.88;2.53;;;10.10;99.90;;;;;;5066561;28;20048;-64
2023/12/28 09:31:04;;;;;;;1.42;1.00;;;10.10;99.90;;;;;;5078354;28;20020;-63
2023/12/28 09:33:30;;;;;;;1.55;0.80;;;10.10;99.90;;;;;;5066141;28;20060;-64
2023/12/28 09:35:56;;;;;;;1.17;0.85;;;10.20;99.90;;;;;;5062973;28;20024;-64
2023/12/28 09:38:22;;;;;;;3.67;0.80;;;10.20;99.90;;;;;;5068892;28;20033;-63
2023/12/28 09:40:53;;;;;;;4.43;1.13;;;10.20;99.90;;;;;;5061532;28;20111;-63
2023/12/28 09:43:27;;;;;;;2.17;1.00;;;10.20;99.90;;;;;;5067284;28;20033;-64
2023/12/28 09:45:56;;;;;;;0.85;0.50;;;10.20;99.90;;;;;;5062462;28;20600;-63
2023/12/28 09:48:22;;;;;;;1.83;1.08;;;10.20;99.90;;;;;;5067829;28;20036;-63
2023/12/28 09:50:58;;;;;;;1.70;0.82;;;10.20;99.90;;;;;;5061320;28;20048;-63
2023/12/28 09:53:24;;;;;;;1.80;0.98;;;10.20;99.90;;;;;;5067530;28;20180;-64
2023/12/28 09:55:51;;;;;;;2.97;1.10;;;10.20;99.90;;;;;;5067641;28;20039;-64
2023/12/28 09:58:19;;;;;;;0.73;0.57;;;10.30;99.90;;;;;;5066726;28;20477;-64
2023/12/28 10:00:46;;;;;;;5.70;1.02;;;10.20;99.90;;;;;;5066067;28;20473;-63
2023/12/28 10:03:13;;;;;;;1.33;0.85;;;10.10;99.90;;;;;;5067995;28;20021;-64
2023/12/28 10:05:46;;;;;;;2.60;0.85;;;10.10;99.90;;;;;;5066580;28;20033;-63
2023/12/28 10:08:14;;;;;;;1.92;0.77;;;10.10;99.90;;;;;;5067871;28;20035;-63
2023/12/28 10:10:41;;;;;;;0.82;0.52;;;10.10;99.90;;;;;;5060669;28;20082;-64
2023/12/28 10:13:08;;;;;;;0.80;0.68;;;10.20;99.90;;;;;;5066585;28;20086;-64
2023/12/28 10:15:35;;;;;;;3.33;1.30;;;10.20;99.90;;;;;;5065516;28;20034;-64
2023/12/28 10:18:02;;;;;;;2.90;1.38;;;10.20;99.90;;;;;;5067642;28;20024;-64
2023/12/28 10:20:28;;;;;;;3.17;0.88;;;10.20;99.90;;;;;;5065803;28;20559;-64
2023/12/28 10:22:54;;;;;;;0.95;0.50;;;10.30;99.90;;;;;;5067418;28;20025;-64
2023/12/28 10:25:20;;;;;;;1.52;0.82;;;10.20;99.90;;;;;;5060081;28;20127;-64
2023/12/28 10:27:50;;;;;;;0.75;0.50;;;10.30;99.90;;;;;;5053918;28;20063;-64
2023/12/28 10:30:16;;;;;;;0.88;0.60;;;10.20;99.90;;;;;;5046650;28;20094;-64
2023/12/28 10:32:42;;;;;;;0.60;0.52;;;10.10;99.90;;;;;;5052869;28;20666;-65
2023/12/28 10:35:08;;;;;;;3.60;0.80;;;10.20;99.90;;;;;;5046815;28;20043;-64
2023/12/28 10:37:39;;;;;;;0.93;0.77;;;10.20;99.90;;;;;;5052912;28;20071;-64
2023/12/28 10:40:06;;;;;;;3.72;1.33;;;10.20;99.90;;;;;;5052529;28;20028;-64
2023/12/28 10:42:46;;;;;;;1.55;0.70;;;10.30;99.90;;;;;;5052229;28;20119;-64
2023/12/28 10:45:13;;;;;;;0.90;0.52;;;10.30;99.90;;;;;;5052239;28;20037;-64
2023/12/28 10:47:55;;;;;;;8.98;0.77;;;10.40;99.90;;;;;;5036226;28;20029;-63
2023/12/28 10:50:22;;;;;;;1.90;0.80;;;10.60;99.90;;;;;;5052233;28;20124;-63
2023/12/28 10:52:53;;;;;;;2.03;0.90;;;10.50;99.90;;;;;;5052506;28;20475;-63
2023/12/28 10:55:39;;;;;;;1.83;1.00;;;10.60;99.90;;;;;;5028837;28;20045;-64
2023/12/28 10:58:15;;;;;;;0.98;0.70;;;10.60;99.90;;;;;;5052470;28;20028;-65
2023/12/28 11:00:52;;;;;;;1.20;0.95;;;10.70;99.90;;;;;;5051552;28;20029;-63
2023/12/28 11:03:27;;;;;;;3.50;1.00;;;10.50;99.90;;;;;;5052609;28;20143;-64
2023/12/28 11:05:54;;;;;;;1.15;0.88;;;10.60;99.90;;;;;;5062284;28;20059;-64
2023/12/28 11:08:21;;;;;;;1.85;1.27;;;10.50;99.90;;;;;;5052189;28;20060;-64
2023/12/28 11:10:51;;;;;;;3.75;1.85;;;10.60;99.90;;;;;;5061824;28;20025;-64
2023/12/28 11:13:21;;;;;;;3.20;1.00;;;10.60;99.90;;;;;;5052007;28;20032;-63
2023/12/28 11:15:48;;;;;;;1.73;1.60;;;10.60;99.90;;;;;;5061853;28;20041;-64
2023/12/28 11:18:15;;;;;;;0.85;0.73;;;10.50;99.90;;;;;;5035805;28;20025;-64
2023/12/28 11:20:43;;;;;;;1.35;0.90;;;10.60;99.90;;;;;;5045738;28;20032;-63
2023/12/28 11:23:11;;;;;;;1.13;0.90;;;10.60;99.90;;;;;;5052190;28;20025;-63
2023/12/28 11:25:37;;;;;;;1.65;0.95;;;10.60;99.90;;;;;;5052114;28;20546;-63
2023/12/28 11:28:12;;;;;;;3.55;1.38;;;10.70;99.90;;;;;;5053319;28;20040;-63
2023/12/28 11:30:41;;;;;;;2.70;1.30;;;10.60;99.90;;;;;;5045256;28;20039;-64
2023/12/28 11:33:07;;;;;;;1.35;0.95;;;10.60;99.90;;;;;;5053158;28;20033;-63
2023/12/28 11:35:39;;;;;;;2.35;1.15;;;10.50;99.90;;;;;;5045362;28;20083;-63
2023/12/28 11:38:09;;;;;;;1.73;1.10;;;10.50;99.90;;;;;;5050679;28;20104;-63
2023/12/28 11:40:42;;;;;;;3.03;1.83;;;10.40;99.90;;;;;;5045390;28;20041;-64
2023/12/28 11:43:20;;;;;;;7.13;2.13;;;10.30;99.90;;;;;;5051862;28;20112;-64
2023/12/28 11:45:51;;;;;;;3.75;1.25;;;10.30;99.90;;;;;;5045562;28;20123;-63
2023/12/28 11:48:28;;;;;;;1.48;0.85;;;10.30;99.90;;;;;;5052900;28;20624;-64
2023/12/28 11:51:00;;;;;;;4.50;1.17;;;10.10;99.90;;;;;;5061547;28;20033;-64
2023/12/28 11:53:27;;;;;;;3.15;1.42;;;9.90;99.90;;;;;;5050820;28;20028;-63
2023/12/28 11:56:03;;;;;;;2.47;1.23;;;9.90;99.90;;;;;;5046194;28;20066;-65
2023/12/28 11:58:29;;;;;;;6.35;1.88;;;9.90;99.90;;;;;;5051585;28;20492;-63
2023/12/28 12:00:54;;;;;;;5.10;2.45;;;9.80;99.90;;;;;;5045891;28;20029;-63
2023/12/28 12:03:20;;;;;;;2.45;1.25;;;9.80;99.90;;;;;;5052453;28;20047;-64
2023/12/28 12:05:46;;;;;;;1.30;0.70;;;9.90;99.90;;;;;;5045102;28;20370;-63
2023/12/28 12:08:14;;;;;;;1.45;1.05;;;9.80;99.90;;;;;;5052282;28;20503;-63
2023/12/28 12:10:42;;;;;;;5.88;1.27;;;9.80;99.90;;;;;;5044641;28;20036;-63
2023/12/28 12:13:08;;;;;;;1.92;0.80;;;9.80;99.90;;;;;;5051304;28;20040;-64
2023/12/28 12:15:34;;;;;;;11.25;1.75;;;9.80;99.90;;;;;;5049781;28;20021;-64
2023/12/28 12:18:02;;;;;;;2.28;1.42;;;9.70;99.90;;;;;;5050928;28;20491;-63
2023/12/28 12:20:29;;;;;;;1.73;0.93;;;9.70;99.90;;;;;;5050513;28;20569;-64
2023/12/28 12:22:59;;;;;;;3.35;1.13;;;9.60;99.90;;;;;;5050721;28;20071;-64
2023/12/28 12:25:25;;;;;;;1.73;1.38;;;9.50;99.90;;;;;;5044661;28;20039;-64
2023/12/28 12:27:50;;;;;;;4.65;2.15;;;9.40;99.90;;;;;;5052354;28;20103;-63
2023/12/28 12:30:16;;;;;;;1.75;1.52;;;9.40;99.90;;;;;;5045009;28;20041;-63
2023/12/28 12:32:43;;;;;;;4.82;1.25;;;9.30;99.90;;;;;;5051591;28;20021;-64
2023/12/28 12:35:14;;;;;;;1.92;1.25;;;9.20;99.90;;;;;;5027435;28;20531;-64
2023/12/28 12:37:40;;;;;;;3.25;1.48;;;9.10;99.90;;;;;;5042731;28;20025;-64
2023/12/28 12:40:07;;;;;;;1.02;0.80;;;9.10;99.90;;;;;;5050450;28;20375;-63
2023/12/28 12:42:33;;;;;;;3.80;1.40;;;9.10;99.90;;;;;;5051368;28;20029;-64
2023/12/28 12:44:59;;;;;;;3.53;1.65;;;9.00;99.90;;;;;;5050606;28;20530;-63
2023/12/28 12:47:25;;;;;;;3.03;1.33;;;9.00;99.90;;;;;;5050514;28;20033;-63
2023/12/28 12:49:56;;;;;;;2.60;1.60;;;9.00;99.90;;;;;;5044134;28;20104;-62
2023/12/28 12:52:23;;;;;;;2.13;1.50;;;8.90;99.90;;;;;;5051300;28;20032;-63